Flight Track Log - Related Links

Times and Time Zones

All times are in EDT time to prevent confusion due to time zone crossing. See the SKW6345 flight status page for this flight to view local times or setup timezone preferences in your user account.

Time Position Orientation Groundspeed Altitude Reporting Facility
EDT Latitude Longitude Course Direction KTS MPH feet Rate Location/Type
Sun 08:56:00 PM 33.9310 -118.1893 94° East  Level Estimated
Sun 08:57:00 PM 33.9271 -118.1164 94° East  Level Estimated
Sun 08:58:00 PM 33.9231 -118.0435 94° East  Level Estimated
Sun 08:59:00 PM 33.9192 -117.9707 94° East  Level Estimated
Sun 09:00:00 PM 33.9151 -117.8978 94° East  Level Estimated
Sun 09:01:00 PM 33.9110 -117.8249 94° East  Level Estimated
Sun 09:02:00 PM 33.9069 -117.7521 94° East  Level Estimated
Sun 09:03:00 PM 33.9027 -117.6792 94° East  Level Estimated
Sun 09:04:00 PM 33.8985 -117.6064 94° East  Level Estimated
Sun 09:05:00 PM 33.8943 -117.5335 94° East  Level Estimated
Sun 09:06:00 PM 33.8900 -117.4607 94° East  Level Estimated
Sun 09:07:00 PM 33.8856 -117.3878 94° East  Level Estimated
Sun 09:08:00 PM 33.8812 -117.3150 94° East  Level Estimated
Sun 09:09:00 PM 33.8768 -117.2422 94° East  Level Estimated
Sun 09:10:00 PM 33.8723 -117.1694 94° East  Level Estimated
Sun 09:11:00 PM 33.8678 -117.0966 94° East  Level Estimated
Sun 09:12:00 PM 33.8633 -117.0238 94° East  Level Estimated
Sun 09:13:00 PM 33.8587 -116.9510 94° East  Level Estimated
Sun 09:14:00 PM 33.8540 -116.8783 94° East  Level Estimated
Sun 09:15:00 PM 33.8493 -116.8055 94° East  Level Estimated
Sun 09:16:00 PM 33.8446 -116.7328 94° East  Level Estimated
Sun 09:17:00 PM 33.8399 -116.6600 94° East  Level Estimated
Sun 09:18:00 PM 33.8350 -116.5873 95° East  Level Estimated
Sun 09:19:00 PM 33.8302 -116.5145 95° East  Level Estimated
Sun 09:20:00 PM 33.8297 -116.5067 95° East  Level Estimated
Sun 09:21:00 PM 33.8297 -116.5067 228° Southwest  Level Estimated
Sun 09:22:00 PM 33.8297 -116.5067 228° Southwest  Level Estimated
Sun 09:23:00 PM 33.8297 -116.5067 228° Southwest  Level Estimated
Sun 09:24:00 PM 33.8297 -116.5067 228° Southwest  Level Estimated
Sun 09:25:00 PM 33.8297 -116.5067 228° Southwest  Level Estimated
Sun 09:26:00 PM 33.8297 -116.5067 228° Southwest  Level Estimated
Sun 09:27:00 PM 33.8297 -116.5067 228° Southwest  Level Estimated
Sun 09:28:00 PM 33.8297 -116.5067 228° Southwest  Level Estimated

Login

Don't have an account? Register now (free) for customized features, flight alerts, and more!